AZU4339 SBCY-SBKP
Flight info
| Callsign | AZU4339 |
|---|---|
| Flight time | 1h 42m |
| Altitude | 39000 |
| Route | DIKUN DCT ASDOV DCT UTLOT |
| Aircraft | A20N/M-SDE2E3FGHIRWXY/LB1 |
Departure
| Time | 2026-05-07 20:34 |
|---|---|
| Airport | Várzea Grande–Marechal Rondon International Airport (SBCY) |
Arrival
| Time | 2026-05-07 22:17 |
|---|---|
| Airport | Viracopos International Airport (SBKP) |
| Time | Latitude | Longitude | Altitude | Speed | Heading |
|---|---|---|---|---|---|
| 2026-05-07 20:14 | -15.64890 | -56.12059 | 596 ft | 0 kts | 243° |
| 2026-05-07 20:26 | -15.64884 | -56.12048 | 597 ft | 2 kts | 243° |
| 2026-05-07 20:26 | -15.64878 | -56.12035 | 597 ft | 2 kts | 243° |
| 2026-05-07 20:26 | -15.64869 | -56.12026 | 597 ft | 2 kts | 162° |
| 2026-05-07 20:26 | -15.64864 | -56.12027 | 596 ft | 0 kts | 157° |
| 2026-05-07 20:28 | -15.64867 | -56.12026 | 596 ft | 1 kts | 156° |
| 2026-05-07 20:28 | -15.64881 | -56.12019 | 596 ft | 5 kts | 154° |
| 2026-05-07 20:28 | -15.64930 | -56.11994 | 596 ft | 10 kts | 152° |
| 2026-05-07 20:29 | -15.64990 | -56.11961 | 596 ft | 9 kts | 153° |
| 2026-05-07 20:29 | -15.65045 | -56.11933 | 597 ft | 9 kts | 154° |
| 2026-05-07 20:29 | -15.65086 | -56.11892 | 597 ft | 8 kts | 101° |
| 2026-05-07 20:29 | -15.65071 | -56.11847 | 598 ft | 7 kts | 62° |
| 2026-05-07 20:30 | -15.65075 | -56.11790 | 598 ft | 12 kts | 129° |
| 2026-05-07 20:30 | -15.65153 | -56.11744 | 598 ft | 14 kts | 154° |
| 2026-05-07 20:30 | -15.65246 | -56.11695 | 598 ft | 17 kts | 153° |
| 2026-05-07 20:30 | -15.65354 | -56.11636 | 600 ft | 17 kts | 152° |
| 2026-05-07 20:31 | -15.65456 | -56.11584 | 599 ft | 18 kts | 153° |
| 2026-05-07 20:31 | -15.65590 | -56.11512 | 599 ft | 22 kts | 153° |
| 2026-05-07 20:31 | -15.65722 | -56.11442 | 598 ft | 20 kts | 153° |
| 2026-05-07 20:31 | -15.65848 | -56.11375 | 596 ft | 21 kts | 153° |
| 2026-05-07 20:32 | -15.65971 | -56.11310 | 597 ft | 18 kts | 153° |
| 2026-05-07 20:32 | -15.66081 | -56.11252 | 597 ft | 18 kts | 153° |
| 2026-05-07 20:32 | -15.66171 | -56.11197 | 597 ft | 7 kts | 121° |
| 2026-05-07 20:32 | -15.66188 | -56.11159 | 598 ft | 5 kts | 149° |
| 2026-05-07 20:33 | -15.66210 | -56.11172 | 598 ft | 3 kts | 254° |
| 2026-05-07 20:33 | -15.66196 | -56.11190 | 597 ft | 1 kts | 336° |
| 2026-05-07 20:33 | -15.66188 | -56.11194 | 597 ft | 7 kts | 334° |
| 2026-05-07 20:34 | -15.65940 | -56.11326 | 597 ft | 75 kts | 333° |
| 2026-05-07 20:34 | -15.65293 | -56.11669 | 599 ft | 131 kts | 333° |
| 2026-05-07 20:34 | -15.64384 | -56.12148 | 922 ft | 149 kts | 333° |
| 2026-05-07 20:34 | -15.63456 | -56.12641 | 1491 ft | 154 kts | 334° |
| 2026-05-07 20:35 | -15.62471 | -56.13170 | 1880 ft | 165 kts | 335° |
| 2026-05-07 20:35 | -15.61397 | -56.13743 | 2155 ft | 184 kts | 334° |
| 2026-05-07 20:35 | -15.60192 | -56.14387 | 2326 ft | 207 kts | 333° |
| 2026-05-07 20:35 | -15.59051 | -56.15368 | 2791 ft | 220 kts | 307° |
| 2026-05-07 20:36 | -15.58546 | -56.16881 | 3417 ft | 230 kts | 274° |
| 2026-05-07 20:36 | -15.58918 | -56.18504 | 4045 ft | 238 kts | 242° |
| 2026-05-07 20:36 | -15.60091 | -56.19736 | 4659 ft | 247 kts | 211° |
| 2026-05-07 20:36 | -15.61765 | -56.20238 | 5148 ft | 262 kts | 182° |
| 2026-05-07 20:37 | -15.63597 | -56.19842 | 5426 ft | 280 kts | 150° |
| 2026-05-07 20:37 | -15.65064 | -56.18518 | 5980 ft | 283 kts | 126° |
| 2026-05-07 20:37 | -15.66284 | -56.16907 | 6632 ft | 286 kts | 126° |
| 2026-05-07 20:37 | -15.67514 | -56.15267 | 7271 ft | 289 kts | 125° |
| 2026-05-07 20:38 | -15.68733 | -56.13641 | 7892 ft | 291 kts | 125° |
| 2026-05-07 20:38 | -15.69983 | -56.11976 | 8513 ft | 294 kts | 126° |
| 2026-05-07 20:38 | -15.71245 | -56.10298 | 9114 ft | 296 kts | 126° |
| 2026-05-07 20:38 | -15.72521 | -56.08604 | 9702 ft | 299 kts | 126° |
| 2026-05-07 20:39 | -15.73811 | -56.06895 | 10225 ft | 302 kts | 126° |
| 2026-05-07 20:39 | -15.75108 | -56.05173 | 10752 ft | 304 kts | 126° |
| 2026-05-07 20:39 | -15.76414 | -56.03437 | 11268 ft | 306 kts | 126° |
| 2026-05-07 20:39 | -15.77732 | -56.01687 | 11768 ft | 309 kts | 127° |
| 2026-05-07 20:40 | -15.79061 | -55.99923 | 12277 ft | 312 kts | 127° |
| 2026-05-07 20:40 | -15.80397 | -55.98152 | 12786 ft | 314 kts | 128° |
| 2026-05-07 20:40 | -15.81750 | -55.96360 | 13266 ft | 316 kts | 128° |
| 2026-05-07 20:40 | -15.83110 | -55.94556 | 13750 ft | 319 kts | 129° |
| 2026-05-07 20:41 | -15.84483 | -55.92735 | 14170 ft | 321 kts | 129° |
| 2026-05-07 20:41 | -15.85860 | -55.90910 | 14640 ft | 322 kts | 128° |
| 2026-05-07 20:41 | -15.87236 | -55.89078 | 15100 ft | 322 kts | 128° |
| 2026-05-07 20:41 | -15.88615 | -55.87239 | 15557 ft | 323 kts | 128° |
| 2026-05-07 20:42 | -15.90002 | -55.85390 | 15972 ft | 325 kts | 128° |
| 2026-05-07 20:42 | -15.91397 | -55.83532 | 16409 ft | 327 kts | 128° |
| 2026-05-07 20:42 | -15.92796 | -55.81670 | 16840 ft | 329 kts | 128° |
| 2026-05-07 20:42 | -15.94205 | -55.79794 | 17297 ft | 330 kts | 128° |
| 2026-05-07 20:43 | -15.95638 | -55.77890 | 17519 ft | 341 kts | 128° |
| 2026-05-07 20:43 | -15.97127 | -55.75906 | 17655 ft | 355 kts | 128° |
| 2026-05-07 20:43 | -15.98681 | -55.73835 | 17785 ft | 371 kts | 128° |
| 2026-05-07 20:43 | -16.00292 | -55.71685 | 18090 ft | 383 kts | 128° |
| 2026-05-07 20:44 | -16.01942 | -55.69486 | 18560 ft | 388 kts | 128° |
| 2026-05-07 20:44 | -16.03610 | -55.67262 | 19110 ft | 391 kts | 128° |
| 2026-05-07 20:44 | -16.05291 | -55.65019 | 19666 ft | 395 kts | 128° |
| 2026-05-07 20:44 | -16.06982 | -55.62764 | 20208 ft | 398 kts | 128° |
| 2026-05-07 20:45 | -16.08692 | -55.60484 | 20741 ft | 401 kts | 127° |
| 2026-05-07 20:45 | -16.10416 | -55.58184 | 21267 ft | 405 kts | 127° |
| 2026-05-07 20:45 | -16.12156 | -55.55864 | 21791 ft | 408 kts | 127° |
| 2026-05-07 20:45 | -16.13910 | -55.53525 | 22319 ft | 412 kts | 127° |
| 2026-05-07 20:46 | -16.15672 | -55.51173 | 22862 ft | 414 kts | 127° |
| 2026-05-07 20:46 | -16.17449 | -55.48800 | 23390 ft | 417 kts | 127° |
| 2026-05-07 20:46 | -16.19236 | -55.46407 | 23828 ft | 420 kts | 127° |
| 2026-05-07 20:46 | -16.21037 | -55.43996 | 24238 ft | 424 kts | 127° |
| 2026-05-07 20:47 | -16.22848 | -55.41570 | 24666 ft | 427 kts | 128° |
| 2026-05-07 20:47 | -16.24678 | -55.39119 | 25065 ft | 430 kts | 128° |
| 2026-05-07 20:47 | -16.26521 | -55.36650 | 25487 ft | 433 kts | 129° |
| 2026-05-07 20:47 | -16.28380 | -55.34161 | 25877 ft | 437 kts | 129° |
| 2026-05-07 20:48 | -16.30256 | -55.31653 | 26266 ft | 441 kts | 129° |
| 2026-05-07 20:48 | -16.32139 | -55.29133 | 26700 ft | 443 kts | 129° |
| 2026-05-07 20:48 | -16.34035 | -55.26595 | 27124 ft | 445 kts | 129° |
| 2026-05-07 20:48 | -16.35939 | -55.24043 | 27567 ft | 447 kts | 129° |
| 2026-05-07 20:49 | -16.37852 | -55.21475 | 27977 ft | 450 kts | 129° |
| 2026-05-07 20:49 | -16.39773 | -55.18897 | 28377 ft | 453 kts | 129° |
| 2026-05-07 20:49 | -16.41710 | -55.16296 | 28787 ft | 455 kts | 129° |
| 2026-05-07 20:49 | -16.43655 | -55.13678 | 29186 ft | 458 kts | 130° |
| 2026-05-07 20:50 | -16.45612 | -55.11043 | 29571 ft | 461 kts | 130° |
| 2026-05-07 20:50 | -16.47585 | -55.08391 | 29926 ft | 465 kts | 130° |
| 2026-05-07 20:50 | -16.49567 | -55.05727 | 30249 ft | 467 kts | 130° |
| 2026-05-07 20:50 | -16.51561 | -55.03042 | 30579 ft | 469 kts | 130° |
| 2026-05-07 20:51 | -16.53563 | -55.00343 | 30907 ft | 472 kts | 130° |
| 2026-05-07 20:51 | -16.55574 | -54.97633 | 31247 ft | 473 kts | 130° |
| 2026-05-07 20:51 | -16.57585 | -54.94930 | 31685 ft | 472 kts | 130° |
| 2026-05-07 20:51 | -16.59591 | -54.92228 | 32169 ft | 470 kts | 130° |
| 2026-05-07 20:52 | -16.61563 | -54.89570 | 32645 ft | 469 kts | 130° |
| 2026-05-07 20:52 | -16.63557 | -54.86884 | 33115 ft | 468 kts | 130° |
| 2026-05-07 20:52 | -16.65539 | -54.84209 | 33587 ft | 466 kts | 130° |
| 2026-05-07 20:52 | -16.67545 | -54.81497 | 34043 ft | 465 kts | 130° |
| 2026-05-07 20:53 | -16.69498 | -54.78863 | 34411 ft | 465 kts | 131° |
| 2026-05-07 20:53 | -16.71482 | -54.76192 | 34740 ft | 466 kts | 131° |
| 2026-05-07 20:53 | -16.73445 | -54.73545 | 35059 ft | 466 kts | 131° |
| 2026-05-07 20:53 | -16.75426 | -54.70872 | 35397 ft | 466 kts | 131° |
| 2026-05-07 20:54 | -16.77411 | -54.68193 | 35724 ft | 467 kts | 131° |
| 2026-05-07 20:54 | -16.79395 | -54.65510 | 36048 ft | 467 kts | 131° |
| 2026-05-07 20:54 | -16.81379 | -54.62824 | 36353 ft | 467 kts | 131° |
| 2026-05-07 20:54 | -16.83355 | -54.60140 | 36658 ft | 467 kts | 131° |
| 2026-05-07 20:55 | -16.85337 | -54.57450 | 36949 ft | 467 kts | 131° |
| 2026-05-07 20:55 | -16.87325 | -54.54762 | 37231 ft | 468 kts | 131° |
| 2026-05-07 20:55 | -16.89313 | -54.52072 | 37512 ft | 468 kts | 131° |
| 2026-05-07 20:55 | -16.91299 | -54.49378 | 37796 ft | 468 kts | 131° |
| 2026-05-07 20:56 | -16.93284 | -54.46688 | 38064 ft | 469 kts | 131° |
| 2026-05-07 20:56 | -16.95271 | -54.43987 | 38327 ft | 469 kts | 131° |
| 2026-05-07 20:56 | -16.97259 | -54.41286 | 38584 ft | 469 kts | 132° |
| 2026-05-07 20:56 | -16.99248 | -54.38584 | 38777 ft | 469 kts | 132° |
| 2026-05-07 20:57 | -17.01237 | -54.35885 | 38877 ft | 470 kts | 132° |
| 2026-05-07 20:57 | -17.05216 | -54.30475 | 38905 ft | 469 kts | 132° |
| 2026-05-07 20:58 | -17.09181 | -54.25072 | 38902 ft | 469 kts | 132° |
| 2026-05-07 20:58 | -17.13122 | -54.19708 | 38921 ft | 468 kts | 132° |
| 2026-05-07 20:59 | -17.17093 | -54.14309 | 38916 ft | 468 kts | 132° |
| 2026-05-07 20:59 | -17.21060 | -54.08904 | 38918 ft | 469 kts | 132° |
| 2026-05-07 21:00 | -17.25031 | -54.03486 | 38925 ft | 469 kts | 132° |
| 2026-05-07 21:00 | -17.29001 | -53.98067 | 38936 ft | 469 kts | 132° |
| 2026-05-07 21:01 | -17.33028 | -53.92693 | 38943 ft | 468 kts | 134° |
| 2026-05-07 21:01 | -17.37181 | -53.87453 | 38939 ft | 468 kts | 135° |
| 2026-05-07 21:02 | -17.41362 | -53.82225 | 38932 ft | 468 kts | 134° |
| 2026-05-07 21:02 | -17.45508 | -53.76960 | 38934 ft | 469 kts | 134° |
| 2026-05-07 21:03 | -17.49639 | -53.71659 | 38937 ft | 469 kts | 134° |
| 2026-05-07 21:03 | -17.53772 | -53.66363 | 38945 ft | 469 kts | 134° |
| 2026-05-07 21:04 | -17.57906 | -53.61081 | 38933 ft | 469 kts | 134° |
| 2026-05-07 21:04 | -17.62043 | -53.55785 | 38926 ft | 469 kts | 134° |
| 2026-05-07 21:05 | -17.66174 | -53.50485 | 38936 ft | 470 kts | 134° |
| 2026-05-07 21:05 | -17.70312 | -53.45178 | 38936 ft | 470 kts | 134° |
| 2026-05-07 21:06 | -17.74447 | -53.39873 | 38946 ft | 470 kts | 134° |
| 2026-05-07 21:06 | -17.78588 | -53.34559 | 38949 ft | 470 kts | 134° |
| 2026-05-07 21:07 | -17.82723 | -53.29244 | 38948 ft | 471 kts | 134° |
| 2026-05-07 21:07 | -17.86837 | -53.23943 | 38951 ft | 471 kts | 134° |
| 2026-05-07 21:08 | -17.90981 | -53.18613 | 38952 ft | 471 kts | 134° |
| 2026-05-07 21:08 | -17.95125 | -53.13274 | 38958 ft | 471 kts | 134° |
| 2026-05-07 21:09 | -17.99258 | -53.07935 | 38955 ft | 471 kts | 134° |
| 2026-05-07 21:09 | -18.03398 | -53.02595 | 38957 ft | 471 kts | 134° |
| 2026-05-07 21:10 | -18.07535 | -52.97253 | 38966 ft | 471 kts | 134° |
| 2026-05-07 21:10 | -18.11658 | -52.91915 | 38971 ft | 470 kts | 134° |
| 2026-05-07 21:11 | -18.15787 | -52.86579 | 38962 ft | 470 kts | 134° |
| 2026-05-07 21:11 | -18.21269 | -52.79480 | 38959 ft | 470 kts | 134° |
| 2026-05-07 21:12 | -18.26077 | -52.73236 | 38964 ft | 470 kts | 134° |
| 2026-05-07 21:12 | -18.29498 | -52.68797 | 38963 ft | 470 kts | 134° |
| 2026-05-07 21:13 | -18.33620 | -52.63461 | 38959 ft | 470 kts | 134° |
| 2026-05-07 21:13 | -18.37740 | -52.58108 | 38959 ft | 470 kts | 134° |
| 2026-05-07 21:14 | -18.41850 | -52.52743 | 38955 ft | 470 kts | 134° |
| 2026-05-07 21:14 | -18.45959 | -52.47393 | 38956 ft | 470 kts | 134° |
| 2026-05-07 21:15 | -18.50047 | -52.42075 | 38959 ft | 470 kts | 134° |
| 2026-05-07 21:15 | -18.54180 | -52.36686 | 38953 ft | 470 kts | 134° |
| 2026-05-07 21:16 | -18.58262 | -52.31359 | 38949 ft | 470 kts | 134° |
| 2026-05-07 21:16 | -18.62365 | -52.26000 | 38947 ft | 470 kts | 134° |
| 2026-05-07 21:17 | -18.66464 | -52.20632 | 38951 ft | 470 kts | 134° |
| 2026-05-07 21:17 | -18.70562 | -52.15266 | 38944 ft | 470 kts | 134° |
| 2026-05-07 21:18 | -18.74674 | -52.09896 | 38938 ft | 470 kts | 134° |
| 2026-05-07 21:18 | -18.78782 | -52.04524 | 38935 ft | 471 kts | 134° |
| 2026-05-07 21:19 | -18.82884 | -51.99137 | 38938 ft | 470 kts | 134° |
| 2026-05-07 21:19 | -18.86978 | -51.93747 | 38942 ft | 470 kts | 134° |
| 2026-05-07 21:20 | -18.91070 | -51.88361 | 38934 ft | 471 kts | 134° |
| 2026-05-07 21:20 | -18.95168 | -51.82962 | 38933 ft | 471 kts | 134° |
| 2026-05-07 21:21 | -18.99266 | -51.77570 | 38933 ft | 471 kts | 134° |
| 2026-05-07 21:21 | -19.03366 | -51.72179 | 38937 ft | 470 kts | 134° |
| 2026-05-07 21:22 | -19.07455 | -51.66792 | 38937 ft | 470 kts | 134° |
| 2026-05-07 21:22 | -19.11550 | -51.61393 | 38927 ft | 471 kts | 134° |
| 2026-05-07 21:23 | -19.15637 | -51.55988 | 38923 ft | 471 kts | 134° |
| 2026-05-07 21:23 | -19.19725 | -51.50576 | 38931 ft | 470 kts | 134° |
| 2026-05-07 21:24 | -19.23805 | -51.45167 | 38936 ft | 470 kts | 134° |
| 2026-05-07 21:24 | -19.27880 | -51.39767 | 38939 ft | 470 kts | 134° |
| 2026-05-07 21:25 | -19.31940 | -51.34394 | 38924 ft | 470 kts | 134° |
| 2026-05-07 21:25 | -19.36049 | -51.28947 | 38928 ft | 470 kts | 134° |
| 2026-05-07 21:26 | -19.40099 | -51.23563 | 38932 ft | 470 kts | 134° |
| 2026-05-07 21:26 | -19.44165 | -51.18145 | 38933 ft | 470 kts | 134° |
| 2026-05-07 21:27 | -19.48242 | -51.12727 | 38928 ft | 470 kts | 134° |
| 2026-05-07 21:27 | -19.52317 | -51.07308 | 38923 ft | 470 kts | 134° |
| 2026-05-07 21:28 | -19.56393 | -51.01872 | 38927 ft | 471 kts | 134° |
| 2026-05-07 21:28 | -19.60467 | -50.96437 | 38926 ft | 471 kts | 134° |
| 2026-05-07 21:29 | -19.64545 | -50.90987 | 38922 ft | 471 kts | 134° |
| 2026-05-07 21:29 | -19.68622 | -50.85531 | 38938 ft | 472 kts | 134° |
| 2026-05-07 21:30 | -19.72695 | -50.80080 | 38932 ft | 471 kts | 134° |
| 2026-05-07 21:30 | -19.76772 | -50.74627 | 38933 ft | 471 kts | 134° |
| 2026-05-07 21:31 | -19.80846 | -50.69167 | 38935 ft | 472 kts | 134° |
| 2026-05-07 21:31 | -19.84915 | -50.63704 | 38944 ft | 472 kts | 134° |
| 2026-05-07 21:32 | -19.88987 | -50.58232 | 38948 ft | 472 kts | 134° |
| 2026-05-07 21:32 | -19.93053 | -50.52775 | 38942 ft | 471 kts | 134° |
| 2026-05-07 21:33 | -19.97119 | -50.47312 | 38942 ft | 471 kts | 134° |
| 2026-05-07 21:33 | -20.01176 | -50.41844 | 38941 ft | 471 kts | 134° |
| 2026-05-07 21:34 | -20.05228 | -50.36385 | 38949 ft | 470 kts | 134° |
| 2026-05-07 21:34 | -20.09273 | -50.30923 | 38947 ft | 470 kts | 134° |
| 2026-05-07 21:35 | -20.13645 | -50.25865 | 38940 ft | 461 kts | 143° |
| 2026-05-07 21:35 | -20.18354 | -50.21219 | 38942 ft | 461 kts | 143° |
| 2026-05-07 21:36 | -20.23056 | -50.16576 | 38949 ft | 461 kts | 143° |
| 2026-05-07 21:36 | -20.27720 | -50.11949 | 38963 ft | 461 kts | 143° |
| 2026-05-07 21:37 | -20.32439 | -50.07263 | 38957 ft | 461 kts | 143° |
| 2026-05-07 21:37 | -20.37096 | -50.02629 | 38949 ft | 461 kts | 143° |
| 2026-05-07 21:38 | -20.41813 | -49.97929 | 38951 ft | 461 kts | 143° |
| 2026-05-07 21:38 | -20.46464 | -49.93301 | 38961 ft | 461 kts | 143° |
| 2026-05-07 21:39 | -20.51143 | -49.88642 | 38955 ft | 460 kts | 143° |
| 2026-05-07 21:39 | -20.55822 | -49.83976 | 38949 ft | 460 kts | 143° |
| 2026-05-07 21:40 | -20.60502 | -49.79314 | 38948 ft | 460 kts | 143° |
| 2026-05-07 21:40 | -20.65172 | -49.74651 | 38959 ft | 460 kts | 143° |
| 2026-05-07 21:41 | -20.69842 | -49.69978 | 38960 ft | 460 kts | 143° |
| 2026-05-07 21:41 | -20.74501 | -49.65309 | 38980 ft | 459 kts | 143° |
| 2026-05-07 21:42 | -20.79165 | -49.60642 | 38991 ft | 459 kts | 143° |
| 2026-05-07 21:42 | -20.83818 | -49.55974 | 39009 ft | 459 kts | 143° |
| 2026-05-07 21:43 | -20.88475 | -49.51299 | 39004 ft | 459 kts | 143° |
| 2026-05-07 21:43 | -20.93127 | -49.46633 | 39005 ft | 459 kts | 143° |
| 2026-05-07 21:44 | -20.97779 | -49.41960 | 38997 ft | 458 kts | 143° |
| 2026-05-07 21:44 | -21.02428 | -49.37288 | 38986 ft | 458 kts | 143° |
| 2026-05-07 21:45 | -21.07067 | -49.32613 | 38980 ft | 458 kts | 143° |
| 2026-05-07 21:45 | -21.11710 | -49.27930 | 38957 ft | 458 kts | 143° |
| 2026-05-07 21:46 | -21.16341 | -49.23251 | 38966 ft | 458 kts | 143° |
| 2026-05-07 21:46 | -21.20945 | -49.18602 | 38967 ft | 457 kts | 143° |
| 2026-05-07 21:47 | -21.25573 | -49.13928 | 38978 ft | 457 kts | 143° |
| 2026-05-07 21:47 | -21.30200 | -49.09244 | 38973 ft | 457 kts | 143° |
| 2026-05-07 21:48 | -21.34817 | -49.04568 | 38970 ft | 457 kts | 143° |
| 2026-05-07 21:48 | -21.39434 | -48.99887 | 38971 ft | 456 kts | 143° |
| 2026-05-07 21:49 | -21.44047 | -48.95214 | 38979 ft | 456 kts | 143° |
| 2026-05-07 21:49 | -21.48659 | -48.90534 | 38979 ft | 456 kts | 143° |
| 2026-05-07 21:50 | -21.53268 | -48.85855 | 38977 ft | 456 kts | 143° |
| 2026-05-07 21:50 | -21.57865 | -48.81177 | 38974 ft | 455 kts | 143° |
| 2026-05-07 21:51 | -21.62435 | -48.76520 | 38988 ft | 455 kts | 144° |
| 2026-05-07 21:51 | -21.67027 | -48.71842 | 38984 ft | 455 kts | 144° |
| 2026-05-07 21:52 | -21.71624 | -48.67165 | 38982 ft | 455 kts | 144° |
| 2026-05-07 21:52 | -21.76208 | -48.62490 | 38968 ft | 454 kts | 143° |
| 2026-05-07 21:53 | -21.80787 | -48.57806 | 38980 ft | 454 kts | 143° |
| 2026-05-07 21:53 | -21.85364 | -48.53126 | 38982 ft | 453 kts | 144° |
| 2026-05-07 21:54 | -21.87651 | -48.50787 | 38703 ft | 457 kts | 144° |
| 2026-05-07 21:54 | -21.89832 | -48.48560 | 37657 ft | 467 kts | 143° |
| 2026-05-07 21:54 | -21.92202 | -48.46135 | 36793 ft | 471 kts | 143° |
| 2026-05-07 21:54 | -21.94578 | -48.43700 | 36012 ft | 473 kts | 142° |
| 2026-05-07 21:55 | -21.96957 | -48.41255 | 35419 ft | 471 kts | 142° |
| 2026-05-07 21:55 | -21.99304 | -48.38841 | 34872 ft | 467 kts | 142° |
| 2026-05-07 21:55 | -22.01648 | -48.36433 | 34292 ft | 464 kts | 141° |
| 2026-05-07 21:55 | -22.03979 | -48.34036 | 33691 ft | 462 kts | 141° |
| 2026-05-07 21:56 | -22.06292 | -48.31654 | 33132 ft | 458 kts | 141° |
| 2026-05-07 21:56 | -22.08551 | -48.29325 | 32572 ft | 453 kts | 141° |
| 2026-05-07 21:56 | -22.10853 | -48.26953 | 32006 ft | 450 kts | 140° |
| 2026-05-07 21:56 | -22.13076 | -48.24664 | 31471 ft | 446 kts | 140° |
| 2026-05-07 21:57 | -22.15345 | -48.22331 | 30929 ft | 443 kts | 140° |
| 2026-05-07 21:57 | -22.17534 | -48.20080 | 30423 ft | 440 kts | 140° |
| 2026-05-07 21:57 | -22.19743 | -48.17808 | 29861 ft | 438 kts | 140° |
| 2026-05-07 21:57 | -22.21939 | -48.15552 | 29333 ft | 433 kts | 140° |
| 2026-05-07 21:58 | -22.24108 | -48.13318 | 28838 ft | 428 kts | 139° |
| 2026-05-07 21:58 | -22.26247 | -48.11106 | 28361 ft | 424 kts | 139° |
| 2026-05-07 21:58 | -22.28363 | -48.08917 | 27880 ft | 419 kts | 139° |
| 2026-05-07 21:58 | -22.30458 | -48.06753 | 27413 ft | 415 kts | 139° |
| 2026-05-07 21:59 | -22.32533 | -48.04612 | 26947 ft | 410 kts | 139° |
| 2026-05-07 21:59 | -22.34587 | -48.02490 | 26480 ft | 407 kts | 139° |
| 2026-05-07 21:59 | -22.35940 | -48.01093 | 26176 ft | 405 kts | 139° |
| 2026-05-07 21:59 | -22.38647 | -47.98295 | 25544 ft | 401 kts | 139° |
| 2026-05-07 22:00 | -22.40659 | -47.96214 | 25060 ft | 399 kts | 139° |
| 2026-05-07 22:00 | -22.41983 | -47.94845 | 24735 ft | 398 kts | 139° |
| 2026-05-07 22:00 | -22.43984 | -47.92775 | 24232 ft | 398 kts | 138° |
| 2026-05-07 22:00 | -22.45979 | -47.90711 | 23733 ft | 397 kts | 138° |
| 2026-05-07 22:01 | -22.47908 | -47.88575 | 23205 ft | 396 kts | 131° |
| 2026-05-07 22:01 | -22.49636 | -47.86276 | 22713 ft | 393 kts | 130° |
| 2026-05-07 22:01 | -22.51352 | -47.83986 | 22245 ft | 390 kts | 130° |
| 2026-05-07 22:01 | -22.53608 | -47.80978 | 21613 ft | 388 kts | 130° |
| 2026-05-07 22:02 | -22.54754 | -47.79450 | 21306 ft | 386 kts | 129° |
| 2026-05-07 22:02 | -22.56445 | -47.77202 | 20846 ft | 384 kts | 129° |
| 2026-05-07 22:02 | -22.58127 | -47.74968 | 20387 ft | 382 kts | 129° |
| 2026-05-07 22:02 | -22.59799 | -47.72744 | 19931 ft | 380 kts | 129° |
| 2026-05-07 22:03 | -22.61438 | -47.70560 | 19478 ft | 378 kts | 128° |
| 2026-05-07 22:03 | -22.63089 | -47.68355 | 19025 ft | 376 kts | 128° |
| 2026-05-07 22:03 | -22.64732 | -47.66161 | 18575 ft | 374 kts | 128° |
| 2026-05-07 22:03 | -22.66367 | -47.63978 | 18107 ft | 372 kts | 128° |
| 2026-05-07 22:04 | -22.67991 | -47.61808 | 17640 ft | 369 kts | 127° |
| 2026-05-07 22:04 | -22.69599 | -47.59662 | 17206 ft | 365 kts | 128° |
| 2026-05-07 22:04 | -22.71405 | -47.57711 | 16787 ft | 362 kts | 140° |
| 2026-05-07 22:04 | -22.73355 | -47.56079 | 16445 ft | 355 kts | 141° |
| 2026-05-07 22:05 | -22.75292 | -47.54452 | 16089 ft | 349 kts | 141° |
| 2026-05-07 22:05 | -22.77198 | -47.52844 | 15740 ft | 345 kts | 141° |
| 2026-05-07 22:05 | -22.79084 | -47.51251 | 15395 ft | 343 kts | 140° |
| 2026-05-07 22:05 | -22.80954 | -47.49670 | 15053 ft | 341 kts | 140° |
| 2026-05-07 22:06 | -22.82819 | -47.48092 | 14710 ft | 339 kts | 140° |
| 2026-05-07 22:06 | -22.84668 | -47.46525 | 14375 ft | 337 kts | 140° |
| 2026-05-07 22:06 | -22.86510 | -47.44963 | 14045 ft | 335 kts | 140° |
| 2026-05-07 22:06 | -22.88342 | -47.43410 | 13703 ft | 333 kts | 140° |
| 2026-05-07 22:07 | -22.90166 | -47.41866 | 13353 ft | 332 kts | 140° |
| 2026-05-07 22:07 | -22.91980 | -47.40329 | 13020 ft | 330 kts | 140° |
| 2026-05-07 22:07 | -22.93786 | -47.38800 | 12685 ft | 329 kts | 140° |
| 2026-05-07 22:07 | -22.95586 | -47.37275 | 12361 ft | 328 kts | 140° |
| 2026-05-07 22:08 | -22.97346 | -47.35715 | 12040 ft | 325 kts | 133° |
| 2026-05-07 22:08 | -22.98812 | -47.33872 | 11660 ft | 322 kts | 125° |
| 2026-05-07 22:08 | -23.00180 | -47.31958 | 11282 ft | 320 kts | 125° |
| 2026-05-07 22:08 | -23.01545 | -47.30055 | 10901 ft | 319 kts | 125° |
| 2026-05-07 22:09 | -23.02902 | -47.28166 | 10521 ft | 315 kts | 125° |
| 2026-05-07 22:09 | -23.04244 | -47.26298 | 10144 ft | 312 kts | 125° |
| 2026-05-07 22:09 | -23.05574 | -47.24449 | 9759 ft | 310 kts | 126° |
| 2026-05-07 22:09 | -23.06898 | -47.22610 | 9349 ft | 308 kts | 125° |
| 2026-05-07 22:10 | -23.08205 | -47.20794 | 8980 ft | 302 kts | 125° |
| 2026-05-07 22:10 | -23.09482 | -47.19015 | 8606 ft | 296 kts | 125° |
| 2026-05-07 22:10 | -23.10731 | -47.17271 | 8240 ft | 289 kts | 125° |
| 2026-05-07 22:10 | -23.11953 | -47.15562 | 7890 ft | 284 kts | 125° |
| 2026-05-07 22:11 | -23.13150 | -47.13887 | 7538 ft | 279 kts | 125° |
| 2026-05-07 22:11 | -23.14322 | -47.12243 | 7243 ft | 271 kts | 125° |
| 2026-05-07 22:11 | -23.15460 | -47.10651 | 6962 ft | 262 kts | 125° |
| 2026-05-07 22:11 | -23.16441 | -47.09038 | 6710 ft | 250 kts | 105° |
| 2026-05-07 22:12 | -23.16543 | -47.07248 | 6456 ft | 232 kts | 70° |
| 2026-05-07 22:12 | -23.15755 | -47.05807 | 6134 ft | 219 kts | 37° |
| 2026-05-07 22:12 | -23.14557 | -47.04826 | 5839 ft | 214 kts | 33° |
| 2026-05-07 22:12 | -23.13388 | -47.03845 | 5548 ft | 211 kts | 34° |
| 2026-05-07 22:13 | -23.12245 | -47.02866 | 5268 ft | 208 kts | 34° |
| 2026-05-07 22:13 | -23.11119 | -47.01905 | 4993 ft | 204 kts | 32° |
| 2026-05-07 22:13 | -23.09842 | -47.01435 | 4746 ft | 192 kts | 353° |
| 2026-05-07 22:13 | -23.08718 | -47.02062 | 4482 ft | 185 kts | 319° |
| 2026-05-07 22:14 | -23.07898 | -47.03105 | 4233 ft | 178 kts | 311° |
| 2026-05-07 22:14 | -23.07187 | -47.04159 | 4010 ft | 167 kts | 310° |
| 2026-05-07 22:14 | -23.06530 | -47.05147 | 3811 ft | 155 kts | 311° |
| 2026-05-07 22:14 | -23.05908 | -47.06068 | 3638 ft | 149 kts | 311° |
| 2026-05-07 22:15 | -23.05298 | -47.06960 | 3442 ft | 146 kts | 310° |
| 2026-05-07 22:15 | -23.04684 | -47.07844 | 3244 ft | 148 kts | 310° |
| 2026-05-07 22:15 | -23.04075 | -47.08743 | 3043 ft | 148 kts | 310° |
| 2026-05-07 22:15 | -23.03449 | -47.09638 | 2804 ft | 149 kts | 309° |
| 2026-05-07 22:16 | -23.02821 | -47.10537 | 2573 ft | 150 kts | 309° |
| 2026-05-07 22:16 | -23.02181 | -47.11441 | 2398 ft | 151 kts | 310° |
| 2026-05-07 22:16 | -23.01533 | -47.12341 | 2168 ft | 150 kts | 309° |
| 2026-05-07 22:16 | -23.00958 | -47.13146 | 2149 ft | 113 kts | 308° |
| 2026-05-07 22:17 | -23.00560 | -47.13701 | 2152 ft | 81 kts | 308° |
| 2026-05-07 22:17 | -23.00251 | -47.14133 | 2155 ft | 65 kts | 308° |
| 2026-05-07 22:17 | -23.00011 | -47.14468 | 2154 ft | 40 kts | 307° |
| 2026-05-07 22:17 | -22.99976 | -47.14621 | 2151 ft | 14 kts | 254° |
| 2026-05-07 22:18 | -23.00018 | -47.14687 | 2153 ft | 10 kts | 227° |
| 2026-05-07 22:18 | -23.00126 | -47.14734 | 2157 ft | 8 kts | 173° |
| 2026-05-07 22:18 | -23.00176 | -47.14708 | 2153 ft | 9 kts | 147° |
| 2026-05-07 22:19 | -23.00214 | -47.14666 | 2152 ft | 7 kts | 120° |
| 2026-05-07 22:19 | -23.00250 | -47.14629 | 2155 ft | 8 kts | 172° |
| 2026-05-07 22:19 | -23.00305 | -47.14662 | 2155 ft | 10 kts | 217° |
| 2026-05-07 22:19 | -23.00356 | -47.14705 | 2153 ft | 9 kts | 218° |
| 2026-05-07 22:20 | -23.00397 | -47.14741 | 2151 ft | 7 kts | 219° |
| 2026-05-07 22:20 | -23.00430 | -47.14769 | 2153 ft | 5 kts | 217° |
| 2026-05-07 22:20 | -23.00450 | -47.14785 | 2151 ft | 1 kts | 218° |
| 2026-05-07 22:20 | -23.00453 | -47.14788 | 2150 ft | 0 kts | 218° |